createdAt,value
2023-01-05T00:01:47.949Z,98235.34
2023-01-05T00:04:18.944Z,98224.25
2023-01-05T00:06:48.446Z,98236.88
2023-01-05T00:09:19.775Z,98231.63
2023-01-05T00:12:05.307Z,98226.78
2023-01-05T00:14:52.038Z,98222.00
2023-01-05T00:17:39.348Z,98227.50
2023-01-05T00:20:33.255Z,98229.34
2023-01-05T00:23:01.941Z,98238.06
2023-01-05T00:25:32.469Z,98244.09
2023-01-05T00:28:01.298Z,98226.13
2023-01-05T00:30:33.509Z,98226.91
2023-01-05T00:33:02.171Z,98216.59
2023-01-05T00:35:33.066Z,98226.00
2023-01-05T00:38:05.973Z,98212.44
2023-01-05T00:40:35.255Z,98204.75
2023-01-05T00:43:04.514Z,98201.13
2023-01-05T00:45:34.575Z,98207.31
2023-01-05T00:48:06.216Z,98210.06
2023-01-05T00:50:38.141Z,98211.69
2023-01-05T00:53:06.383Z,98208.22
2023-01-05T00:55:35.670Z,98198.88
2023-01-05T00:58:04.337Z,98171.50
2023-01-05T01:00:33.529Z,98188.50
2023-01-05T01:03:02.381Z,98184.41
2023-01-05T01:05:33.333Z,98183.59
2023-01-05T01:08:03.598Z,98184.53
2023-01-05T01:10:33.003Z,98196.41
2023-01-05T01:13:01.592Z,98195.72
2023-01-05T01:15:29.760Z,98193.97
2023-01-05T01:17:59.381Z,98179.47
2023-01-05T01:20:29.500Z,98184.56
2023-01-05T01:23:00.747Z,98182.09
2023-01-05T01:25:31.137Z,98195.66
2023-01-05T01:27:59.360Z,98197.22
2023-01-05T01:30:27.833Z,98187.91
2023-01-05T01:32:56.595Z,98175.13
2023-01-05T01:35:24.964Z,98156.31
2023-01-05T01:37:53.977Z,98152.88
2023-01-05T01:40:22.294Z,98147.84
2023-01-05T01:42:52.781Z,98147.75
2023-01-05T01:45:23.674Z,98142.66
2023-01-05T01:47:57.136Z,98146.91
2023-01-05T01:50:30.630Z,98149.41
2023-01-05T01:53:02.691Z,98140.97
2023-01-05T01:55:34.504Z,98132.41
2023-01-05T01:58:08.281Z,98139.03
2023-01-05T02:00:36.881Z,98142.56
2023-01-05T02:03:06.809Z,98144.28
2023-01-05T02:05:37.649Z,98139.91
2023-01-05T02:08:11.790Z,98130.56
2023-01-05T02:11:30.796Z,98146.78
2023-01-05T02:14:18.293Z,98129.66
2023-01-05T02:16:56.646Z,98138.22
2023-01-05T02:19:59.569Z,98129.47
2023-01-05T02:22:52.120Z,98133.81
2023-01-05T02:25:44.764Z,98129.59
2023-01-05T02:28:26.963Z,98137.28
2023-01-05T02:31:23.018Z,98132.88
2023-01-05T02:34:04.875Z,98128.75
2023-01-05T02:36:40.219Z,98142.19
2023-01-05T02:39:15.568Z,98137.91
2023-01-05T02:41:50.681Z,98129.28
2023-01-05T02:44:20.596Z,98126.59
2023-01-05T02:47:01.903Z,98115.50
2023-01-05T02:49:33.120Z,98101.81
2023-01-05T02:52:03.987Z,98118.78
2023-01-05T02:54:36.670Z,98107.81
2023-01-05T02:57:10.867Z,98099.19
2023-01-05T02:59:44.912Z,98086.44
2023-01-05T03:02:17.223Z,98095.59
2023-01-05T03:04:50.576Z,98098.91
2023-01-05T03:07:27.850Z,98109.94
2023-01-05T03:09:57.039Z,98098.97
2023-01-05T03:12:47.578Z,98112.63
2023-01-05T03:15:21.238Z,98108.28
2023-01-05T03:17:54.719Z,98089.28
2023-01-05T03:20:25.104Z,98091.81
2023-01-05T03:23:12.145Z,98092.69
2023-01-05T03:25:59.284Z,98106.47
2023-01-05T03:28:49.352Z,98096.06
2023-01-05T03:31:42.291Z,98093.50
2023-01-05T03:34:36.470Z,98077.28
2023-01-05T03:37:09.859Z,98072.53
2023-01-05T03:39:42.646Z,98068.38
2023-01-05T03:42:14.606Z,98070.69
2023-01-05T03:44:47.778Z,98058.75
2023-01-05T03:47:16.808Z,98058.34
2023-01-05T03:49:47.062Z,98045.75
2023-01-05T03:52:15.277Z,98053.06
2023-01-05T03:54:44.210Z,98053.06
2023-01-05T03:57:13.002Z,98053.94
2023-01-05T03:59:42.916Z,98045.25
2023-01-05T04:02:12.033Z,98038.59
2023-01-05T04:04:40.800Z,98046.09
2023-01-05T04:07:11.236Z,98047.75
2023-01-05T04:09:39.740Z,98036.44
2023-01-05T04:12:09.503Z,98040.00
2023-01-05T04:14:37.855Z,98058.59
2023-01-05T04:17:06.366Z,98058.66
2023-01-05T04:19:36.522Z,98063.66
2023-01-05T04:22:05.331Z,98074.28
2023-01-05T04:24:36.513Z,98068.34
2023-01-05T04:27:05.298Z,98078.63
2023-01-05T04:29:34.396Z,98065.06
2023-01-05T04:32:04.211Z,98067.66
2023-01-05T04:34:32.999Z,98062.38
2023-01-05T04:37:02.104Z,98068.25
2023-01-05T04:39:30.848Z,98059.03
2023-01-05T04:42:01.317Z,98077.66
2023-01-05T04:44:29.985Z,98073.25
2023-01-05T04:46:59.919Z,98068.22
2023-01-05T04:49:28.490Z,98081.72
2023-01-05T04:51:57.208Z,98085.97
2023-01-05T04:54:26.083Z,98083.81
2023-01-05T04:56:54.699Z,98069.41
2023-01-05T04:59:24.735Z,98065.34
2023-01-05T05:01:53.822Z,98096.81
2023-01-05T05:04:25.672Z,98079.84
2023-01-05T05:06:54.262Z,98099.47
2023-01-05T05:09:23.457Z,98101.06
2023-01-05T05:11:52.545Z,98100.44
2023-01-05T05:14:20.743Z,98108.47
2023-01-05T05:16:50.436Z,98118.22
2023-01-05T05:19:19.199Z,98113.13
2023-01-05T05:21:47.967Z,98114.44
2023-01-05T05:24:16.441Z,98137.44
2023-01-05T05:26:44.798Z,98142.78
2023-01-05T05:29:13.741Z,98148.03
2023-01-05T05:31:42.618Z,98150.13
2023-01-05T05:34:12.612Z,98151.97
2023-01-05T05:36:40.928Z,98159.81
2023-01-05T05:39:10.332Z,98172.53
2023-01-05T05:41:39.293Z,98160.81
2023-01-05T05:44:12.812Z,98188.84
2023-01-05T05:46:41.797Z,98191.63
2023-01-05T05:49:13.549Z,98178.97
2023-01-05T05:51:42.356Z,98179.84
2023-01-05T05:54:11.233Z,98212.34
2023-01-05T05:56:39.836Z,98202.28
2023-01-05T05:59:08.644Z,98214.16
2023-01-05T06:01:37.751Z,98210.13
2023-01-05T06:04:07.031Z,98216.09
2023-01-05T06:06:39.204Z,98228.03
2023-01-05T06:09:08.442Z,98224.66
2023-01-05T06:11:37.403Z,98218.75
2023-01-05T06:14:06.705Z,98241.00
2023-01-05T06:16:35.353Z,98224.97
2023-01-05T06:19:04.485Z,98231.72
2023-01-05T06:21:33.612Z,98258.13
2023-01-05T06:24:03.916Z,98259.22
2023-01-05T06:26:32.285Z,98244.00
2023-01-05T06:29:02.106Z,98250.81
2023-01-05T06:31:30.838Z,98238.22
2023-01-05T06:34:00.627Z,98257.09
2023-01-05T06:36:29.332Z,98247.75
2023-01-05T06:38:57.815Z,98229.19
2023-01-05T06:41:27.847Z,98230.06
2023-01-05T06:43:56.097Z,98240.13
2023-01-05T06:46:24.419Z,98240.22
2023-01-05T06:48:52.951Z,98227.53
2023-01-05T06:51:21.148Z,98238.59
2023-01-05T06:53:49.771Z,98236.31
2023-01-05T06:56:18.817Z,98247.06
2023-01-05T06:58:49.034Z,98253.09
2023-01-05T07:01:17.695Z,98240.19
2023-01-05T07:03:49.567Z,98248.72
2023-01-05T07:06:18.437Z,98226.75
2023-01-05T07:08:47.669Z,98248.81
2023-01-05T07:11:17.218Z,98252.25
2023-01-05T07:13:50.703Z,98243.75
2023-01-05T07:16:19.845Z,98249.72
2023-01-05T07:18:48.589Z,98261.66
2023-01-05T07:21:17.483Z,98257.50
2023-01-05T07:23:48.995Z,98269.44
2023-01-05T07:26:17.508Z,98280.53
2023-01-05T07:28:45.869Z,98264.19
2023-01-05T07:31:17.348Z,98283.81
2023-01-05T07:33:45.667Z,98286.34
2023-01-05T07:36:14.121Z,98284.78
2023-01-05T07:38:42.550Z,98301.00
2023-01-05T07:41:10.891Z,98297.50
2023-01-05T07:43:39.406Z,98305.03
2023-01-05T07:46:08.044Z,98306.03
2023-01-05T07:48:38.039Z,98317.81
2023-01-05T07:51:08.127Z,98312.56
2023-01-05T07:53:44.283Z,98330.56
2023-01-05T07:56:14.404Z,98312.50
2023-01-05T07:58:43.808Z,98321.94
2023-01-05T08:01:14.156Z,98319.34
2023-01-05T08:03:44.239Z,98333.97
2023-01-05T08:06:14.584Z,98332.31
2023-01-05T08:08:43.631Z,98353.59
2023-01-05T08:11:15.630Z,98344.00
2023-01-05T08:14:03.092Z,98360.09
2023-01-05T08:16:34.014Z,98367.00
2023-01-05T08:19:09.181Z,98365.91
2023-01-05T08:21:39.485Z,98365.13
2023-01-05T08:24:09.139Z,98349.66
2023-01-05T08:26:37.889Z,98363.34
2023-01-05T08:29:06.770Z,98372.72
2023-01-05T08:31:37.900Z,98370.25
2023-01-05T08:34:08.395Z,98373.56
2023-01-05T08:36:37.079Z,98372.75
2023-01-05T08:39:06.150Z,98378.53
2023-01-05T08:41:39.943Z,98376.88
2023-01-05T08:44:13.227Z,98385.38
2023-01-05T08:46:42.121Z,98383.69
2023-01-05T08:49:13.742Z,98390.66
2023-01-05T08:51:42.322Z,98392.34
2023-01-05T08:54:12.692Z,98378.78
2023-01-05T08:56:43.011Z,98395.69
2023-01-05T08:59:15.230Z,98391.38
2023-01-05T09:01:44.408Z,98385.31
2023-01-05T09:04:14.270Z,98397.19
2023-01-05T09:06:44.323Z,98384.28
2023-01-05T09:09:14.002Z,98371.31
2023-01-05T09:11:42.965Z,98398.75
2023-01-05T09:14:15.131Z,98398.81
2023-01-05T09:19:36.559Z,98407.13
2023-01-05T09:22:05.752Z,98416.59
2023-01-05T09:24:34.465Z,98423.38
2023-01-05T09:27:04.590Z,98425.09
2023-01-05T09:29:33.284Z,98423.41
2023-01-05T09:32:02.549Z,98426.00
2023-01-05T09:34:33.395Z,98410.72
2023-01-05T09:37:02.108Z,98419.34
2023-01-05T09:39:30.772Z,98434.47
2023-01-05T09:42:03.076Z,98437.81
2023-01-05T09:44:33.767Z,98429.00
2023-01-05T09:47:06.710Z,98426.38
2023-01-05T09:49:36.878Z,98417.00
2023-01-05T09:52:09.544Z,98424.63
2023-01-05T09:54:41.343Z,98427.19
2023-01-05T09:57:17.242Z,98427.13
2023-01-05T09:59:48.327Z,98410.19
2023-01-05T10:02:22.902Z,98422.88
2023-01-05T10:04:54.872Z,98423.88
2023-01-05T10:07:33.631Z,98417.69
2023-01-05T10:10:08.085Z,98420.09
2023-01-05T10:13:03.452Z,98438.94
2023-01-05T10:15:40.157Z,98433.78
2023-01-05T10:18:15.334Z,98436.41
2023-01-05T10:21:06.721Z,98436.31
2023-01-05T10:23:55.152Z,98438.78
2023-01-05T10:26:51.019Z,98443.94
2023-01-05T10:29:25.366Z,98440.44
2023-01-05T10:32:00.832Z,98440.44
2023-01-05T10:34:47.793Z,98424.16
2023-01-05T10:37:42.035Z,98432.75
2023-01-05T10:40:22.383Z,98406.22
2023-01-05T10:43:01.145Z,98420.50
2023-01-05T10:45:32.628Z,98434.78
2023-01-05T10:48:01.860Z,98429.56
2023-01-05T10:50:38.231Z,98428.41
2023-01-05T10:53:12.909Z,98431.25
2023-01-05T10:55:51.720Z,98439.03
2023-01-05T10:58:28.231Z,98430.63
2023-01-05T11:01:00.106Z,98428.19
2023-01-05T11:06:30.497Z,98438.28
2023-01-05T11:09:13.381Z,98432.97
2023-01-05T11:11:43.748Z,98433.72
2023-01-05T11:14:17.634Z,98437.97
2023-01-05T11:16:51.754Z,98436.47
2023-01-05T11:19:26.064Z,98444.84
2023-01-05T11:22:01.462Z,98447.31
2023-01-05T11:24:34.132Z,98445.44
2023-01-05T11:27:05.997Z,98442.13
2023-01-05T11:29:34.392Z,98438.75
2023-01-05T11:32:05.496Z,98437.91
2023-01-05T11:34:42.846Z,98453.34
2023-01-05T11:37:24.369Z,98455.97
2023-01-05T11:39:56.842Z,98460.31
2023-01-05T11:42:33.842Z,98448.31
2023-01-05T11:45:06.437Z,98467.97
2023-01-05T11:47:43.807Z,98454.44
2023-01-05T11:50:25.254Z,98455.22
2023-01-05T11:52:56.041Z,98450.94
2023-01-05T11:55:32.012Z,98445.84
2023-01-05T11:58:30.605Z,98448.25
2023-01-05T12:01:28.781Z,98452.59
2023-01-05T12:04:04.356Z,98455.13
2023-01-05T12:07:17.392Z,98449.16
2023-01-05T12:09:52.017Z,98449.38
2023-01-05T12:12:34.681Z,98442.81
2023-01-05T12:15:28.577Z,98452.84
2023-01-05T12:18:08.139Z,98456.91
2023-01-05T12:20:57.962Z,98448.13
2023-01-05T12:23:56.876Z,98441.81
2023-01-05T12:26:29.725Z,98439.09
2023-01-05T12:36:12.085Z,98455.22
2023-01-05T12:38:52.841Z,98460.66
2023-01-05T12:41:37.682Z,98462.38
2023-01-05T12:44:45.760Z,98464.16
2023-01-05T12:47:34.201Z,98456.63
2023-01-05T12:50:23.422Z,98461.81
2023-01-05T12:52:56.246Z,98465.91
2023-01-05T12:55:30.934Z,98472.72
2023-01-05T12:58:05.729Z,98481.34
2023-01-05T13:00:43.039Z,98463.63
2023-01-05T13:03:21.880Z,98462.06
2023-01-05T13:05:56.203Z,98461.22
2023-01-05T13:08:31.702Z,98468.72
2023-01-05T13:11:04.489Z,98456.72
2023-01-05T13:13:39.230Z,98470.00
2023-01-05T13:16:15.430Z,98467.25
2023-01-05T13:18:53.799Z,98456.97
2023-01-05T13:21:24.333Z,98456.91
2023-01-05T13:23:57.983Z,98459.38
2023-01-05T13:26:27.030Z,98461.06
2023-01-05T13:28:58.002Z,98453.22
2023-01-05T13:31:51.109Z,98460.22
2023-01-05T13:34:33.515Z,98450.78
2023-01-05T13:37:23.155Z,98446.56
2023-01-05T13:40:15.001Z,98463.84
2023-01-05T13:43:14.251Z,98438.97
2023-01-05T13:46:22.066Z,98450.16
2023-01-05T13:49:25.951Z,98457.22
2023-01-05T13:51:59.380Z,98464.16
2023-01-05T13:54:54.453Z,98468.47
2023-01-05T13:57:31.898Z,98460.72
2023-01-05T14:00:10.159Z,98476.03
2023-01-05T14:02:43.207Z,98472.53
2023-01-05T14:05:24.419Z,98476.59
2023-01-05T14:07:58.334Z,98482.59
2023-01-05T14:10:29.776Z,98484.25
2023-01-05T14:12:59.178Z,98483.53
2023-01-05T14:15:41.232Z,98487.09
2023-01-05T14:18:11.906Z,98484.63
2023-01-05T14:20:45.083Z,98489.16
2023-01-05T14:23:50.753Z,98489.25
2023-01-05T14:27:00.012Z,98495.34
2023-01-05T14:30:11.367Z,98503.13
2023-01-05T14:32:42.459Z,98508.31
2023-01-05T14:35:26.087Z,98512.63
2023-01-05T14:38:01.056Z,98507.56
2023-01-05T14:40:42.599Z,98521.28
2023-01-05T14:43:29.062Z,98516.22
2023-01-05T14:46:10.135Z,98523.97
2023-01-05T14:48:43.487Z,98531.78
2023-01-05T14:51:24.345Z,98526.72
2023-01-05T14:53:56.977Z,98526.84
2023-01-05T14:56:28.084Z,98530.31
2023-01-05T14:59:20.193Z,98533.72
2023-01-05T15:01:53.103Z,98533.69
2023-01-05T15:04:27.524Z,98535.53
2023-01-05T15:07:13.647Z,98532.13
2023-01-05T15:09:57.552Z,98537.28
2023-01-05T15:12:43.302Z,98544.16
2023-01-05T15:15:40.847Z,98542.56
2023-01-05T15:18:35.125Z,98539.03
2023-01-05T15:21:28.974Z,98550.19
2023-01-05T15:24:22.342Z,98564.66
2023-01-05T15:27:08.741Z,98556.13
2023-01-05T15:29:53.077Z,98556.94
2023-01-05T15:32:24.377Z,98566.38
2023-01-05T15:34:59.356Z,98565.53
2023-01-05T15:37:35.108Z,98564.78
2023-01-05T15:40:07.941Z,98573.22
2023-01-05T15:42:41.300Z,98572.41
2023-01-05T15:45:18.897Z,98572.41
2023-01-05T15:47:49.757Z,98571.53
2023-01-05T15:50:22.749Z,98569.84
2023-01-05T15:52:57.463Z,98579.28
2023-01-05T15:55:27.226Z,98575.94
2023-01-05T15:57:58.904Z,98586.09
2023-01-05T16:00:30.480Z,98582.63
2023-01-05T16:03:00.703Z,98592.91
2023-01-05T16:05:33.179Z,98586.09
2023-01-05T16:08:06.786Z,98586.25
2023-01-05T16:10:39.758Z,98579.47
2023-01-05T16:13:14.201Z,98582.03
2023-01-05T16:15:44.127Z,98599.84
2023-01-05T16:18:20.282Z,98605.91
2023-01-05T16:20:52.468Z,98594.03
2023-01-05T16:23:26.037Z,98591.50
2023-01-05T16:25:57.854Z,98611.97
2023-01-05T16:28:27.957Z,98623.06
2023-01-05T16:30:56.726Z,98607.63
2023-01-05T16:33:35.359Z,98619.66
2023-01-05T16:36:13.949Z,98613.78
2023-01-05T16:38:43.362Z,98618.81
2023-01-05T16:41:14.596Z,98615.47
2023-01-05T16:43:46.066Z,98614.59
2023-01-05T16:46:35.483Z,98631.72
2023-01-05T16:49:25.836Z,98620.69
2023-01-05T16:51:55.364Z,98636.00
2023-01-05T16:54:27.277Z,98633.41
2023-01-05T16:56:59.453Z,98635.25
2023-01-05T16:59:47.812Z,98636.97
2023-01-05T17:02:48.975Z,98643.75
2023-01-05T17:05:22.032Z,98643.78
2023-01-05T17:07:52.460Z,98642.09
2023-01-05T17:10:25.329Z,98639.56
2023-01-05T17:13:02.876Z,98641.22
2023-01-05T17:15:34.612Z,98635.25
2023-01-05T17:18:13.147Z,98638.69
2023-01-05T17:20:44.908Z,98640.50
2023-01-05T17:23:18.166Z,98629.28
2023-01-05T17:25:47.730Z,98638.72
2023-01-05T17:28:16.180Z,98640.47
2023-01-05T17:30:46.426Z,98639.53
2023-01-05T17:33:16.515Z,98645.63
2023-01-05T17:38:18.177Z,98657.66
2023-01-05T17:40:46.870Z,98655.16
2023-01-05T17:43:15.589Z,98668.00
2023-01-05T17:45:45.280Z,98668.03
2023-01-05T17:48:15.451Z,98671.56
2023-01-05T17:50:46.042Z,98677.59
2023-01-05T17:53:14.480Z,98664.88
2023-01-05T17:55:44.661Z,98667.41
2023-01-05T17:58:15.248Z,98670.84
2023-01-05T18:03:22.594Z,98665.69
2023-01-05T18:05:55.022Z,98675.09
2023-01-05T18:08:24.482Z,98674.22
2023-01-05T18:10:53.059Z,98675.94
2023-01-05T18:13:22.878Z,98676.81
2023-01-05T18:15:53.598Z,98673.44
2023-01-05T18:18:22.190Z,98671.66
2023-01-05T18:20:54.176Z,98674.22
2023-01-05T18:23:24.692Z,98674.19
2023-01-05T18:25:53.592Z,98675.09
2023-01-05T18:28:22.323Z,98665.66
2023-01-05T18:30:51.583Z,98676.78
2023-01-05T18:33:20.311Z,98671.66
2023-01-05T18:35:50.742Z,98673.34
2023-01-05T18:38:24.528Z,98676.81
2023-01-05T18:40:54.040Z,98684.50
2023-01-05T18:43:22.727Z,98665.72
2023-01-05T18:45:59.736Z,98676.75
2023-01-05T18:48:28.138Z,98681.88
2023-01-05T18:50:56.822Z,98677.66
2023-01-05T18:53:26.642Z,98665.69
2023-01-05T18:55:57.163Z,98685.34
2023-01-05T18:58:25.656Z,98687.03
2023-01-05T19:00:55.310Z,98688.78
2023-01-05T19:03:24.081Z,98693.94
2023-01-05T19:05:53.030Z,98685.47
2023-01-05T19:08:21.809Z,98685.50
2023-01-05T19:10:52.486Z,98695.75
2023-01-05T19:13:21.666Z,98690.63
2023-01-05T19:15:50.470Z,98693.16
2023-01-05T19:18:20.643Z,98679.53
2023-01-05T19:21:00.009Z,98693.22
2023-01-05T19:23:28.788Z,98692.41
2023-01-05T19:26:04.347Z,98689.00
2023-01-05T19:28:35.734Z,98692.50
2023-01-05T19:31:05.939Z,98696.00
2023-01-05T19:33:34.560Z,98693.50
2023-01-05T19:36:04.406Z,98699.50
2023-01-05T19:38:36.835Z,98706.34
2023-01-05T19:41:10.588Z,98702.06
2023-01-05T19:43:41.538Z,98695.19
2023-01-05T19:46:13.365Z,98697.72
2023-01-05T19:48:43.618Z,98690.06
2023-01-05T19:51:14.488Z,98684.91
2023-01-05T19:53:43.874Z,98696.84
2023-01-05T19:56:15.367Z,98693.47
2023-01-05T19:58:46.323Z,98697.66
2023-01-05T20:01:16.592Z,98694.25
2023-01-05T20:03:47.413Z,98706.19
2023-01-05T20:06:18.431Z,98701.91
2023-01-05T20:08:52.644Z,98694.16
2023-01-05T20:11:36.234Z,98695.88
2023-01-05T20:14:08.647Z,98702.72
2023-01-05T20:16:41.026Z,98701.84
2023-01-05T20:19:10.510Z,98699.28
2023-01-05T20:21:39.835Z,98699.28
2023-01-05T20:24:12.180Z,98702.69
2023-01-05T20:26:45.320Z,98700.13
2023-01-05T20:29:14.982Z,98687.38
2023-01-05T20:31:49.724Z,98699.25
2023-01-05T20:34:20.669Z,98698.41
2023-01-05T20:36:57.618Z,98712.09
2023-01-05T20:39:27.442Z,98700.94
2023-01-05T20:42:05.761Z,98711.22
2023-01-05T20:44:37.571Z,98705.22
2023-01-05T20:47:10.232Z,98701.81
2023-01-05T20:49:40.421Z,98691.69
2023-01-05T20:52:10.594Z,98706.06
2023-01-05T20:54:40.100Z,98701.78
2023-01-05T20:57:10.724Z,98690.72
2023-01-05T20:59:41.129Z,98722.31
2023-01-05T21:02:22.833Z,98726.59
2023-01-05T21:04:52.507Z,98713.75
2023-01-05T21:07:21.508Z,98723.19
2023-01-05T21:09:51.683Z,98716.31
2023-01-05T21:12:22.327Z,98708.66
2023-01-05T21:14:50.987Z,98714.63
2023-01-05T21:17:19.849Z,98700.94
2023-01-05T21:19:48.791Z,98703.50
2023-01-05T21:22:17.238Z,98703.50
2023-01-05T21:24:45.949Z,98714.59
2023-01-05T21:27:15.439Z,98710.34
2023-01-05T21:29:45.967Z,98719.75
2023-01-05T21:32:14.777Z,98711.25
2023-01-05T21:34:43.603Z,98718.09
2023-01-05T21:37:13.003Z,98714.72
2023-01-05T21:39:41.750Z,98713.91
2023-01-05T21:42:29.005Z,98714.03
2023-01-05T21:45:00.293Z,98710.63
2023-01-05T21:47:28.849Z,98720.91
2023-01-05T21:49:57.748Z,98716.66
2023-01-05T21:52:43.723Z,98714.09
2023-01-05T21:55:30.024Z,98717.59
2023-01-05T21:57:58.502Z,98723.56
2023-01-05T22:00:29.640Z,98714.19
2023-01-05T22:02:58.861Z,98716.78
2023-01-05T22:05:28.534Z,98717.63
2023-01-05T22:07:57.252Z,98720.22
2023-01-05T22:10:26.329Z,98715.13
2023-01-05T22:12:55.717Z,98709.09
2023-01-05T22:15:24.558Z,98708.25
2023-01-05T22:17:56.916Z,98696.31
2023-01-05T22:20:25.839Z,98707.41
2023-01-05T22:22:54.697Z,98711.66
2023-01-05T22:25:23.085Z,98704.00
2023-01-05T22:27:51.679Z,98698.03
2023-01-05T22:30:20.063Z,98705.69
2023-01-05T22:32:49.304Z,98701.41
2023-01-05T22:35:20.428Z,98710.84
2023-01-05T22:37:51.545Z,98703.16
2023-01-05T22:40:20.387Z,98704.84
2023-01-05T22:42:49.274Z,98706.56
2023-01-05T22:45:17.880Z,98709.94
2023-01-05T22:47:46.621Z,98710.81
2023-01-05T22:50:15.205Z,98695.47
2023-01-05T22:52:45.012Z,98709.94
2023-01-05T22:55:13.594Z,98697.13
2023-01-05T22:57:42.120Z,98691.97
2023-01-05T23:00:11.824Z,98702.25
2023-01-05T23:02:40.344Z,98703.03
2023-01-05T23:05:10.529Z,98704.75
2023-01-05T23:07:38.965Z,98706.47
2023-01-05T23:10:10.558Z,98691.97
2023-01-05T23:12:39.185Z,98691.13
2023-01-05T23:15:09.042Z,98685.16
2023-01-05T23:17:37.260Z,98682.59
2023-01-05T23:20:06.360Z,98676.59
2023-01-05T23:22:36.200Z,98676.66
2023-01-05T23:25:05.609Z,98682.66
2023-01-05T23:27:36.323Z,98677.50
2023-01-05T23:30:06.797Z,98675.81
2023-01-05T23:32:35.920Z,98676.63
2023-01-05T23:35:04.800Z,98661.25
2023-01-05T23:37:34.006Z,98673.25
2023-01-05T23:40:03.373Z,98670.69
2023-01-05T23:42:47.998Z,98669.00
2023-01-05T23:45:18.043Z,98661.34
2023-01-05T23:47:46.482Z,98676.69
2023-01-05T23:50:15.134Z,98664.75
2023-01-05T23:52:43.769Z,98663.03
2023-01-05T23:55:12.081Z,98669.88
2023-01-05T23:57:41.037Z,98663.03
